Time;durP1;ratioP1;P1;durP2;ratioP2;P2;SDS_P1;SDS_P2;PMS_P1;PMS_P2;Temp;Humidity;BMP_temperature;BMP_pressure;BME280_temperature;BME280_humidity;BME280_pressure;Samples;Min_cycle;Max_cycle;Signal;HPM_P1;HPM_P2
2021/12/21 00:01:02;;;;;;;7.05;3.67;;;6.70;96.60;;;;;;10400465;28;20029;-66
2021/12/21 00:06:03;;;;;;;5.82;3.75;;;6.70;96.50;;;;;;10399346;28;20079;-68
2021/12/21 00:11:04;;;;;;;7.00;3.70;;;7.00;96.60;;;;;;10398006;28;20101;-68
2021/12/21 00:21:41;;;;;;;10.50;4.70;;;6.60;96.40;;;;;;10406660;28;20115;-68
2021/12/21 00:26:42;;;;;;;8.98;4.38;;;6.60;96.70;;;;;;10404413;28;20466;-67
2021/12/21 00:31:42;;;;;;;9.75;4.70;;;6.60;96.40;;;;;;10407092;28;20067;-67
2021/12/21 00:36:46;;;;;;;10.13;4.85;;;6.60;96.40;;;;;;10405256;28;20522;-68
2021/12/21 00:41:47;;;;;;;10.27;4.95;;;6.60;96.40;;;;;;10406551;28;20059;-69
2021/12/21 00:46:47;;;;;;;8.45;4.60;;;6.60;96.30;;;;;;10406628;28;20164;-69
2021/12/21 00:51:48;;;;;;;9.90;4.80;;;6.50;96.30;;;;;;10406468;28;20054;-68
2021/12/21 00:56:49;;;;;;;9.77;5.25;;;6.50;96.30;;;;;;10406557;28;20119;-68
2021/12/21 01:01:50;;;;;;;8.05;4.72;;;6.50;96.30;;;;;;10406145;28;20403;-68
2021/12/21 01:07:33;;;;;;;8.48;5.15;;;6.50;96.30;;;;;;10405643;28;20021;-67
2021/12/21 01:12:34;;;;;;;12.07;5.07;;;6.50;96.30;;;;;;10396750;28;20405;-68
2021/12/21 01:17:48;;;;;;;10.32;5.07;;;6.40;96.20;;;;;;10414880;28;20271;-68
2021/12/21 01:28:28;;;;;;;9.32;4.78;;;6.40;96.20;;;;;;10406783;28;20017;-67
2021/12/21 01:33:44;;;;;;;8.90;4.82;;;6.40;96.10;;;;;;10404547;28;20495;-68
2021/12/21 01:39:00;;;;;;;10.68;4.90;;;6.40;96.10;;;;;;10406249;28;20034;-67
2021/12/21 01:44:40;;;;;;;8.88;4.65;;;6.30;96.10;;;;;;10408838;28;20034;-67
2021/12/21 01:49:43;;;;;;;9.30;4.20;;;6.30;96.10;;;;;;10413413;28;20562;-68
2021/12/21 01:54:44;;;;;;;8.98;4.75;;;6.40;96.10;;;;;;10410382;28;20408;-68
2021/12/21 01:59:46;;;;;;;8.40;4.65;;;6.30;96.10;;;;;;10404492;28;20025;-67
2021/12/21 02:04:47;;;;;;;10.60;4.97;;;6.40;96.00;;;;;;10404975;28;20026;-64
2021/12/21 02:09:48;;;;;;;7.78;4.50;;;6.20;96.00;;;;;;10403698;28;20663;-68
2021/12/21 02:14:59;;;;;;;8.75;4.50;;;6.20;96.00;;;;;;10398448;28;20049;-66
2021/12/21 02:20:07;;;;;;;8.98;4.65;;;6.20;95.90;;;;;;10395757;28;20478;-65
2021/12/21 02:30:43;;;;;;;8.13;4.20;;;6.20;95.90;;;;;;10400012;28;20388;-66
2021/12/21 02:35:44;;;;;;;8.25;4.38;;;6.20;95.90;;;;;;10402057;28;20038;-68
2021/12/21 02:40:45;;;;;;;6.00;3.42;;;6.40;95.90;;;;;;10401771;28;20040;-65
2021/12/21 02:45:46;;;;;;;8.50;4.20;;;6.10;95.80;;;;;;10401323;28;20006;-68
2021/12/21 02:50:47;;;;;;;8.05;3.83;;;6.10;95.80;;;;;;10401007;28;20021;-65
2021/12/21 02:55:48;;;;;;;9.38;4.25;;;6.10;95.80;;;;;;10392750;28;20049;-68
2021/12/21 03:00:51;;;;;;;7.53;4.10;;;6.10;95.80;;;;;;10400600;28;20040;-66
2021/12/21 03:05:55;;;;;;;10.02;4.35;;;6.00;95.70;;;;;;10401759;28;20552;-66
2021/12/21 03:16:35;;;;;;;6.90;3.58;;;6.00;95.70;;;;;;10410589;28;20052;-67
2021/12/21 03:21:37;;;;;;;8.20;3.95;;;6.00;95.60;;;;;;10399930;28;20032;-66
2021/12/21 03:26:38;;;;;;;6.05;3.72;;;6.00;95.70;;;;;;10400717;28;20029;-67
2021/12/21 03:31:39;;;;;;;7.88;3.63;;;6.00;95.70;;;;;;10402484;28;20046;-66
2021/12/21 03:36:41;;;;;;;6.60;4.03;;;5.90;95.60;;;;;;10400709;28;20014;-67
2021/12/21 03:41:46;;;;;;;7.00;3.35;;;5.90;95.60;;;;;;10401365;28;20433;-68
2021/12/21 03:46:50;;;;;;;8.85;4.25;;;5.90;95.60;;;;;;10401844;28;20045;-68
2021/12/21 03:51:51;;;;;;;6.88;3.80;;;5.90;95.50;;;;;;10407438;28;20033;-68
2021/12/21 03:56:52;;;;;;;11.10;3.97;;;5.90;95.50;;;;;;10408078;28;20072;-65
2021/12/21 04:01:53;;;;;;;6.03;3.65;;;5.90;95.50;;;;;;10410044;28;20037;-68
2021/12/21 04:06:54;;;;;;;6.93;3.38;;;5.80;95.50;;;;;;10413726;28;20033;-68
2021/12/21 04:11:55;;;;;;;7.15;3.50;;;5.80;95.40;;;;;;10406558;28;20048;-68
2021/12/21 04:16:56;;;;;;;5.95;3.38;;;5.80;95.40;;;;;;10405975;28;20492;-68
2021/12/21 04:21:56;;;;;;;6.38;3.88;;;5.80;95.40;;;;;;10407615;28;20026;-66
2021/12/21 04:26:57;;;;;;;6.10;3.50;;;5.80;95.40;;;;;;10409155;28;20036;-64
2021/12/21 04:31:58;;;;;;;7.25;3.60;;;5.70;95.40;;;;;;10406855;28;20033;-67
2021/12/21 04:36:59;;;;;;;7.47;3.25;;;5.70;95.40;;;;;;10408783;28;20034;-67
2021/12/21 04:41:59;;;;;;;8.57;3.92;;;5.70;95.30;;;;;;10406715;28;20033;-67
2021/12/21 04:47:00;;;;;;;7.93;3.60;;;5.70;95.30;;;;;;10407861;28;20026;-67
2021/12/21 04:52:01;;;;;;;9.07;3.70;;;5.90;95.30;;;;;;10408591;28;20041;-68
2021/12/21 04:57:02;;;;;;;7.35;3.78;;;5.70;95.30;;;;;;10409746;28;20030;-66
2021/12/21 05:02:03;;;;;;;7.85;3.85;;;5.60;95.30;;;;;;10407959;28;20025;-64
2021/12/21 05:07:04;;;;;;;6.95;3.83;;;5.60;95.20;;;;;;10410227;28;20113;-68
2021/12/21 05:12:07;;;;;;;6.80;3.72;;;5.60;95.20;;;;;;10407167;28;20041;-66
2021/12/21 05:17:08;;;;;;;6.18;3.63;;;5.60;95.20;;;;;;10407780;28;20029;-68
2021/12/21 05:22:09;;;;;;;8.43;4.22;;;5.60;95.20;;;;;;10406459;28;20038;-66
2021/12/21 05:27:10;;;;;;;5.95;3.85;;;5.60;95.20;;;;;;10406026;28;20018;-68
2021/12/21 05:32:11;;;;;;;8.68;4.03;;;5.60;95.20;;;;;;10404787;28;20151;-67
2021/12/21 05:37:12;;;;;;;9.60;4.40;;;5.50;95.10;;;;;;10405170;28;20465;-67
2021/12/21 05:42:13;;;;;;;7.72;4.20;;;5.50;95.10;;;;;;10404543;28;20505;-65
2021/12/21 05:47:13;;;;;;;9.93;3.72;;;5.50;95.10;;;;;;10404496;28;20026;-68
2021/12/21 05:52:14;;;;;;;8.13;4.05;;;5.50;95.10;;;;;;10403971;28;20101;-67
2021/12/21 05:57:15;;;;;;;8.57;4.13;;;5.50;95.10;;;;;;10403477;28;20399;-67
2021/12/21 06:02:17;;;;;;;8.30;3.97;;;5.40;95.00;;;;;;10403839;28;20107;-68
2021/12/21 06:07:17;;;;;;;6.53;3.97;;;5.40;95.00;;;;;;10403642;28;20029;-66
2021/12/21 06:12:37;;;;;;;7.85;4.47;;;5.40;95.00;;;;;;10402991;28;20455;-66
2021/12/21 06:28:10;;;;;;;6.50;4.15;;;5.30;95.00;;;;;;10398013;28;20104;-63
2021/12/21 06:33:10;;;;;;;6.55;3.83;;;5.30;95.00;;;;;;10404964;28;20390;-62
2021/12/21 06:38:11;;;;;;;9.02;4.70;;;5.30;94.90;;;;;;10402768;28;20037;-65
2021/12/21 06:43:15;;;;;;;5.95;3.67;;;5.30;94.90;;;;;;10402440;28;20053;-67
2021/12/21 06:53:37;;;;;;;8.00;4.28;;;5.30;94.90;;;;;;10399830;28;20165;-63
2021/12/21 06:58:38;;;;;;;9.68;4.10;;;5.30;94.90;;;;;;10398673;28;20120;-66
2021/12/21 07:03:39;;;;;;;8.13;4.50;;;5.20;94.80;;;;;;10398849;28;20160;-62
2021/12/21 07:08:48;;;;;;;7.57;4.45;;;5.20;94.80;;;;;;10399445;28;20024;-63
2021/12/21 07:19:09;;;;;;;;;;;5.20;94.80;;;;;;10386743;28;20079;-65
2021/12/21 07:24:10;;;;;;;11.57;4.55;;;5.20;94.00;;;;;;10385347;28;20000;-68
2021/12/21 07:29:11;;;;;;;8.77;4.68;;;5.30;94.80;;;;;;10409688;28;20108;-63
2021/12/21 07:34:12;;;;;;;8.57;4.75;;;6.10;95.00;;;;;;10393980;28;20056;-64
2021/12/21 07:39:17;;;;;;;9.07;5.25;;;5.10;94.80;;;;;;10381344;28;20026;-67
2021/12/21 07:44:19;;;;;;;6.72;4.10;;;5.10;94.70;;;;;;10406620;28;20029;-65
2021/12/21 07:49:20;;;;;;;9.57;4.43;;;5.10;94.70;;;;;;10407429;28;20141;-64
2021/12/21 07:54:21;;;;;;;9.68;5.05;;;5.10;94.70;;;;;;10407520;28;20053;-61
2021/12/21 07:59:22;;;;;;;6.90;4.70;;;5.10;94.70;;;;;;10407740;28;20080;-63
2021/12/21 08:04:27;;;;;;;9.25;4.97;;;5.10;94.70;;;;;;10402075;28;20083;-62
2021/12/21 08:09:36;;;;;;;8.68;4.50;;;5.10;94.60;;;;;;10413245;28;20479;-65
2021/12/21 08:14:36;;;;;;;9.77;4.45;;;5.10;94.60;;;;;;10413269;28;20069;-64
2021/12/21 08:19:38;;;;;;;9.90;4.78;;;5.10;94.60;;;;;;10413524;28;20057;-63
2021/12/21 08:24:43;;;;;;;9.27;4.97;;;5.10;94.50;;;;;;10413575;28;20014;-64
2021/12/21 08:29:43;;;;;;;10.40;5.00;;;5.10;94.50;;;;;;10404133;28;20095;-64
2021/12/21 08:34:44;;;;;;;10.82;4.93;;;5.40;94.80;;;;;;10407728;28;20045;-64
2021/12/21 08:39:45;;;;;;;7.18;4.30;;;5.10;94.40;;;;;;10396918;28;20399;-64
2021/12/21 08:44:47;;;;;;;10.20;4.97;;;5.10;94.40;;;;;;10404875;28;20017;-63
2021/12/21 08:49:49;;;;;;;8.48;5.80;;;5.10;94.70;;;;;;10405972;28;20033;-62
2021/12/21 08:54:50;;;;;;;9.63;4.85;;;5.10;94.40;;;;;;10406898;28;20049;-64
2021/12/21 08:59:51;;;;;;;7.10;4.90;;;5.10;94.40;;;;;;10406404;28;20325;-63
2021/12/21 09:04:52;;;;;;;6.70;4.57;;;5.10;94.40;;;;;;10403828;28;20387;-64
2021/12/21 09:09:52;;;;;;;8.32;4.95;;;5.10;94.30;;;;;;10407535;28;20130;-63
2021/12/21 09:14:53;;;;;;;9.45;5.18;;;5.20;94.40;;;;;;10405397;28;20033;-63
2021/12/21 09:19:55;;;;;;;8.93;5.00;;;5.20;94.30;;;;;;10402737;28;20021;-62
2021/12/21 09:24:57;;;;;;;9.15;5.35;;;5.20;94.30;;;;;;10406920;28;20031;-62
2021/12/21 09:29:58;;;;;;;6.82;5.38;;;5.20;94.30;;;;;;10405630;28;20029;-61
2021/12/21 09:34:59;;;;;;;12.77;6.35;;;5.20;94.30;;;;;;10398735;28;20034;-63
2021/12/21 09:40:01;;;;;;;11.35;6.32;;;6.10;94.50;;;;;;10400681;28;20034;-64
2021/12/21 09:45:04;;;;;;;12.80;6.40;;;5.30;94.30;;;;;;10397635;28;20443;-63
2021/12/21 09:50:07;;;;;;;14.60;6.15;;;5.30;94.30;;;;;;10403215;28;20040;-63
2021/12/21 09:55:11;;;;;;;13.80;6.57;;;5.30;94.60;;;;;;10404228;28;20057;-63
2021/12/21 10:00:25;;;;;;;11.02;6.60;;;5.30;94.30;;;;;;10402592;28;20029;-62
2021/12/21 10:05:25;;;;;;;12.38;7.80;;;5.60;94.30;;;;;;10397295;28;20025;-64
2021/12/21 10:10:29;;;;;;;12.05;7.25;;;5.40;94.30;;;;;;10388770;28;20651;-63
2021/12/21 10:15:38;;;;;;;16.95;7.95;;;5.50;94.30;;;;;;10399587;28;20042;-63
2021/12/21 10:20:39;;;;;;;14.15;8.73;;;5.60;94.00;;;;;;10387176;28;20496;-62
2021/12/21 10:25:43;;;;;;;12.48;7.85;;;5.60;94.20;;;;;;10394407;28;20034;-64
2021/12/21 10:30:50;;;;;;;14.27;8.32;;;5.70;94.20;;;;;;10396899;28;20026;-62
2021/12/21 10:35:56;;;;;;;18.67;10.32;;;5.80;94.10;;;;;;10390361;28;20496;-64
2021/12/21 10:41:26;;;;;;;17.92;9.00;;;5.90;94.10;;;;;;10393342;28;20041;-59
2021/12/21 10:46:33;;;;;;;13.02;7.95;;;6.00;94.00;;;;;;10391397;28;20510;-62
2021/12/21 10:51:34;;;;;;;17.02;9.75;;;6.10;94.00;;;;;;10400550;28;20029;-62
2021/12/21 10:56:35;;;;;;;15.30;9.32;;;6.20;94.00;;;;;;10400783;28;20057;-63
2021/12/21 11:01:43;;;;;;;16.38;9.32;;;6.20;94.00;;;;;;10401164;28;20077;-61
2021/12/21 11:06:48;;;;;;;16.30;9.02;;;6.30;94.00;;;;;;10400725;28;20037;-64
2021/12/21 11:11:56;;;;;;;18.88;9.00;;;6.30;94.00;;;;;;10382314;28;20400;-63
2021/12/21 11:16:56;;;;;;;19.35;9.02;;;6.40;94.00;;;;;;10403627;28;20148;-63
2021/12/21 11:21:58;;;;;;;16.23;8.95;;;6.40;94.00;;;;;;10402387;28;20037;-64
2021/12/21 11:27:02;;;;;;;18.45;9.40;;;6.60;94.10;;;;;;10393315;28;20029;-62
2021/12/21 11:32:04;;;;;;;17.58;8.85;;;6.50;94.00;;;;;;10400456;28;20034;-63
2021/12/21 11:37:25;;;;;;;16.23;8.95;;;6.50;94.10;;;;;;10403750;28;20468;-63
2021/12/21 11:42:38;;;;;;;15.13;8.80;;;6.50;94.10;;;;;;10390917;28;20038;-66
2021/12/21 11:48:00;;;;;;;15.80;9.07;;;6.50;94.20;;;;;;10371046;28;20033;-65
2021/12/21 11:53:05;;;;;;;13.50;8.13;;;6.50;94.20;;;;;;10382947;28;20416;-62
2021/12/21 11:58:39;;;;;;;18.00;9.10;;;6.40;94.30;;;;;;10377554;28;20049;-63
2021/12/21 12:03:46;;;;;;;13.10;8.45;;;6.40;94.20;;;;;;10398372;28;20046;-65
2021/12/21 12:08:50;;;;;;;15.27;8.30;;;6.40;94.40;;;;;;10400202;28;20550;-62
2021/12/21 12:14:09;;;;;;;17.02;8.82;;;6.40;94.50;;;;;;10405483;28;20044;-64
2021/12/21 12:19:17;;;;;;;14.13;8.23;;;6.30;94.40;;;;;;10405142;28;20449;-63
2021/12/21 12:24:19;;;;;;;14.35;8.32;;;6.30;94.50;;;;;;10405992;28;20071;-64
2021/12/21 12:29:20;;;;;;;14.98;9.10;;;6.30;94.60;;;;;;10403869;28;20519;-64
2021/12/21 12:34:24;;;;;;;16.20;8.85;;;6.30;94.70;;;;;;10398086;28;20484;-63
2021/12/21 12:39:43;;;;;;;13.48;8.23;;;6.30;94.70;;;;;;10404715;28;20029;-64
2021/12/21 12:44:45;;;;;;;14.20;8.20;;;6.30;94.70;;;;;;10392969;28;20083;-63
2021/12/21 12:49:52;;;;;;;17.92;8.57;;;6.30;94.80;;;;;;10400330;28;20057;-63
2021/12/21 12:55:00;;;;;;;16.45;8.35;;;6.30;94.80;;;;;;10405376;28;20045;-63
2021/12/21 13:00:24;;;;;;;14.35;7.78;;;6.20;94.80;;;;;;10402449;28;20025;-62
2021/12/21 13:05:40;;;;;;;14.07;7.78;;;6.30;94.70;;;;;;10391673;28;20029;-64
2021/12/21 13:10:44;;;;;;;15.50;8.13;;;6.20;94.80;;;;;;10401595;28;20030;-64
2021/12/21 13:15:50;;;;;;;12.13;7.85;;;6.20;94.90;;;;;;10399177;28;20112;-64
2021/12/21 13:20:52;;;;;;;12.13;7.18;;;6.20;94.90;;;;;;10398577;28;20053;-64
2021/12/21 13:25:59;;;;;;;14.60;7.50;;;6.20;94.90;;;;;;10400157;28;20268;-61
2021/12/21 13:31:00;;;;;;;15.00;7.70;;;6.20;94.90;;;;;;10403074;28;20083;-62
2021/12/21 13:36:06;;;;;;;16.33;8.35;;;6.20;95.00;;;;;;10403311;28;20125;-61
2021/12/21 13:41:12;;;;;;;15.32;7.95;;;6.20;95.00;;;;;;10397403;28;20435;-64
2021/12/21 13:46:12;;;;;;;17.33;8.43;;;6.20;95.00;;;;;;10403551;28;20112;-62
2021/12/21 13:51:16;;;;;;;13.65;7.85;;;7.10;95.30;;;;;;10403300;28;20040;-64
2021/12/21 13:56:20;;;;;;;13.63;8.43;;;6.20;95.10;;;;;;10403639;28;20045;-63
2021/12/21 14:01:31;;;;;;;17.63;8.25;;;6.20;95.10;;;;;;10396803;28;20087;-63
2021/12/21 14:06:35;;;;;;;14.15;8.07;;;6.20;95.10;;;;;;10402833;28;20041;-66
2021/12/21 14:11:41;;;;;;;15.32;8.10;;;6.20;95.10;;;;;;10400109;28;20044;-63
2021/12/21 14:16:44;;;;;;;17.58;8.23;;;6.20;95.10;;;;;;10400235;28;20037;-60
2021/12/21 14:21:46;;;;;;;14.68;7.95;;;6.20;95.10;;;;;;10400354;28;20079;-62
2021/12/21 14:26:52;;;;;;;12.48;7.68;;;6.20;95.20;;;;;;10403014;28;20029;-64
2021/12/21 14:32:03;;;;;;;13.95;7.60;;;6.20;95.20;;;;;;10400999;28;20044;-65
2021/12/21 14:37:14;;;;;;;15.55;8.10;;;6.20;95.20;;;;;;10400173;28;20563;-65
2021/12/21 14:42:18;;;;;;;12.43;6.90;;;6.20;95.20;;;;;;10400377;28;20034;-65
2021/12/21 14:47:24;;;;;;;16.00;8.13;;;6.10;95.20;;;;;;10401224;28;20099;-67
2021/12/21 14:52:39;;;;;;;15.50;7.78;;;6.10;95.30;;;;;;10396863;28;20064;-64
2021/12/21 14:57:59;;;;;;;16.42;7.60;;;6.10;95.30;;;;;;10395638;28;20061;-62
2021/12/21 15:03:03;;;;;;;16.77;7.67;;;6.10;95.40;;;;;;10401548;28;20127;-62
2021/12/21 15:08:07;;;;;;;12.95;7.10;;;6.10;95.40;;;;;;10400291;28;20029;-63
2021/12/21 15:13:08;;;;;;;13.75;7.68;;;6.10;95.40;;;;;;10398995;28;20092;-60
2021/12/21 15:18:10;;;;;;;14.23;7.47;;;5.30;95.30;;;;;;10404480;28;20049;-63
2021/12/21 15:23:11;;;;;;;13.57;7.13;;;6.00;95.50;;;;;;10398907;28;20060;-63
2021/12/21 15:28:12;;;;;;;13.23;7.25;;;6.00;95.50;;;;;;10400172;28;20034;-63
2021/12/21 15:33:12;;;;;;;10.57;6.75;;;6.00;95.50;;;;;;10399842;28;20037;-63
2021/12/21 15:38:13;;;;;;;11.57;6.35;;;6.00;95.50;;;;;;10400344;28;20026;-66
2021/12/21 15:43:15;;;;;;;12.05;7.13;;;6.00;95.60;;;;;;10400248;28;20422;-66
2021/12/21 15:48:15;;;;;;;12.15;6.15;;;5.90;95.60;;;;;;10407667;28;20025;-66
2021/12/21 15:53:16;;;;;;;14.32;6.85;;;5.90;95.80;;;;;;10408821;28;20519;-66
2021/12/21 15:58:17;;;;;;;10.65;6.13;;;6.00;95.80;;;;;;10385163;28;20429;-67
2021/12/21 16:03:18;;;;;;;9.27;5.47;;;6.10;95.90;;;;;;10408446;28;20029;-65
2021/12/21 16:08:19;;;;;;;11.38;6.18;;;6.10;95.80;;;;;;10407262;28;20045;-65
2021/12/21 16:13:20;;;;;;;10.27;6.30;;;6.00;95.80;;;;;;10407050;28;20095;-66
2021/12/21 16:18:21;;;;;;;9.27;5.25;;;6.00;95.80;;;;;;10402884;28;20085;-66
2021/12/21 16:23:22;;;;;;;10.43;5.95;;;6.00;95.80;;;;;;10382396;28;20347;-66
2021/12/21 16:28:23;;;;;;;9.73;5.70;;;6.00;95.80;;;;;;10375087;28;20013;-65
2021/12/21 16:33:25;;;;;;;17.67;6.93;;;5.90;95.80;;;;;;10381999;28;20092;-63
2021/12/21 16:38:27;;;;;;;11.43;6.13;;;6.20;95.90;;;;;;10407960;28;20501;-64
2021/12/21 16:43:33;;;;;;;12.25;6.30;;;5.90;95.80;;;;;;10407950;28;20503;-65
2021/12/21 16:48:36;;;;;;;12.23;6.70;;;5.80;95.80;;;;;;10407577;28;20494;-66
2021/12/21 16:53:37;;;;;;;14.45;6.47;;;5.80;95.80;;;;;;10397031;28;20070;-69
2021/12/21 16:58:40;;;;;;;11.95;6.18;;;5.80;95.80;;;;;;10370733;28;20530;-59
2021/12/21 17:03:42;;;;;;;10.43;6.03;;;5.80;95.80;;;;;;10378208;28;20459;-65
2021/12/21 17:08:44;;;;;;;17.33;6.78;;;5.70;95.80;;;;;;10392139;28;20022;-67
2021/12/21 17:13:46;;;;;;;10.80;5.68;;;5.80;95.90;;;;;;10404768;28;20068;-67
2021/12/21 17:18:47;;;;;;;12.48;6.20;;;5.80;95.90;;;;;;10390046;28;20095;-67
2021/12/21 17:23:49;;;;;;;11.57;6.15;;;6.00;95.90;;;;;;10383644;28;20030;-70
2021/12/21 17:28:50;;;;;;;14.13;6.35;;;5.90;95.80;;;;;;10391294;28;20419;-67
2021/12/21 17:33:51;;;;;;;9.77;5.78;;;5.80;95.80;;;;;;10402652;28;20064;-69
2021/12/21 17:38:51;;;;;;;11.43;5.68;;;5.80;95.80;;;;;;10403954;28;20088;-70
2021/12/21 17:43:52;;;;;;;10.57;5.68;;;5.70;95.80;;;;;;10401016;28;20041;-69
2021/12/21 17:48:53;;;;;;;9.27;5.82;;;5.70;95.80;;;;;;10403401;28;20061;-64
2021/12/21 17:53:54;;;;;;;12.95;5.68;;;5.70;95.80;;;;;;10402676;28;20475;-70
2021/12/21 17:58:55;;;;;;;8.77;5.93;;;5.70;95.80;;;;;;10395181;28;20117;-67
2021/12/21 18:03:55;;;;;;;10.82;6.03;;;6.00;95.80;;;;;;10401390;28;20080;-67
2021/12/21 18:08:56;;;;;;;9.68;6.07;;;5.70;95.80;;;;;;10395911;28;20057;-66
2021/12/21 18:13:57;;;;;;;9.23;5.65;;;5.70;95.70;;;;;;10400668;28;20041;-69
2021/12/21 18:18:58;;;;;;;12.57;6.30;;;5.70;95.70;;;;;;10389428;28;20033;-64
2021/12/21 18:23:58;;;;;;;12.77;5.57;;;5.70;95.70;;;;;;10400747;28;20021;-68
2021/12/21 18:28:59;;;;;;;6.75;4.93;;;5.70;95.70;;;;;;10397537;28;20030;-68
2021/12/21 18:34:00;;;;;;;9.93;4.72;;;5.60;95.70;;;;;;10401545;28;20523;-66
2021/12/21 18:39:03;;;;;;;9.45;5.10;;;5.70;95.70;;;;;;10400492;28;20121;-68
2021/12/21 18:44:04;;;;;;;9.82;5.38;;;5.60;95.70;;;;;;10397522;28;20025;-68
2021/12/21 18:49:05;;;;;;;9.45;5.00;;;5.60;95.70;;;;;;10396373;28;20433;-65
2021/12/21 18:54:06;;;;;;;10.32;5.40;;;5.50;95.70;;;;;;10396341;28;20088;-69
2021/12/21 18:59:08;;;;;;;9.80;5.10;;;5.60;95.70;;;;;;10399917;28;20034;-60
2021/12/21 19:04:10;;;;;;;9.85;4.90;;;5.70;95.70;;;;;;10380299;28;20084;-68
2021/12/21 19:09:13;;;;;;;7.55;5.18;;;5.60;95.70;;;;;;10396508;28;20427;-70
2021/12/21 19:14:14;;;;;;;8.38;4.88;;;5.60;95.70;;;;;;10393380;28;20046;-69
2021/12/21 19:19:15;;;;;;;8.88;5.90;;;5.60;95.70;;;;;;10391608;28;20030;-68
2021/12/21 19:24:16;;;;;;;11.57;5.80;;;5.60;95.70;;;;;;10397544;28;20033;-67
2021/12/21 19:29:17;;;;;;;9.52;5.55;;;5.50;95.60;;;;;;10401426;28;20082;-69
2021/12/21 19:34:17;;;;;;;9.13;5.35;;;5.50;95.60;;;;;;10397124;28;20038;-66
2021/12/21 19:39:18;;;;;;;14.10;6.45;;;5.50;95.60;;;;;;10406784;28;20060;-69
2021/12/21 19:44:19;;;;;;;8.95;5.78;;;5.40;95.60;;;;;;10401583;28;20033;-68
2021/12/21 19:49:20;;;;;;;13.55;6.80;;;5.40;95.80;;;;;;10402960;28;20026;-69
2021/12/21 19:54:22;;;;;;;12.50;6.78;;;5.40;95.60;;;;;;10401787;28;20053;-70
2021/12/21 19:59:23;;;;;;;12.20;6.65;;;5.40;95.50;;;;;;10399545;28;20022;-65
2021/12/21 20:04:25;;;;;;;12.77;6.50;;;5.40;95.50;;;;;;10399367;28;20039;-68
2021/12/21 20:09:26;;;;;;;12.85;7.32;;;5.40;95.50;;;;;;10392680;28;20112;-67
2021/12/21 20:14:27;;;;;;;13.05;7.32;;;5.30;95.50;;;;;;10404176;28;20052;-70
2021/12/21 20:19:31;;;;;;;10.65;6.45;;;5.30;95.50;;;;;;10400087;28;20017;-70
2021/12/21 20:24:35;;;;;;;16.25;8.18;;;5.30;95.50;;;;;;10401843;28;20021;-66
2021/12/21 20:29:36;;;;;;;11.82;7.30;;;5.30;95.50;;;;;;10394887;28;20117;-70
2021/12/21 20:34:37;;;;;;;13.43;7.45;;;4.50;95.30;;;;;;10397551;28;20030;-70
2021/12/21 20:39:38;;;;;;;10.18;6.72;;;5.20;95.40;;;;;;10409118;28;20049;-68
2021/12/21 20:44:39;;;;;;;13.25;7.63;;;5.20;95.40;;;;;;10409481;28;20026;-70
2021/12/21 20:49:40;;;;;;;13.38;6.95;;;5.20;95.40;;;;;;10396485;28;20391;-70
2021/12/21 20:54:41;;;;;;;14.30;6.80;;;5.20;95.40;;;;;;10403188;28;20053;-67
2021/12/21 20:59:42;;;;;;;12.00;7.05;;;5.20;95.40;;;;;;10393461;28;20079;-67
2021/12/21 21:04:43;;;;;;;12.98;7.25;;;5.20;95.40;;;;;;10391646;28;20067;-67
2021/12/21 21:09:45;;;;;;;11.73;6.63;;;5.10;95.40;;;;;;10385773;28;20060;-69
2021/12/21 21:14:45;;;;;;;10.02;6.38;;;5.10;95.40;;;;;;10388346;28;20044;-70
2021/12/21 21:19:46;;;;;;;10.38;6.40;;;5.10;95.30;;;;;;10380272;28;20352;-68
2021/12/21 21:24:47;;;;;;;9.57;6.45;;;5.10;95.30;;;;;;10382876;28;20125;-69
2021/12/21 21:29:48;;;;;;;10.18;6.05;;;5.10;95.30;;;;;;10380095;28;20468;-64
2021/12/21 21:34:49;;;;;;;12.93;6.68;;;5.10;95.40;;;;;;10374805;28;20040;-67
2021/12/21 21:39:49;;;;;;;8.63;6.50;;;5.10;95.30;;;;;;10389023;28;20018;-70
2021/12/21 21:44:51;;;;;;;11.90;6.63;;;5.10;95.30;;;;;;10373459;28;21620;-70
2021/12/21 21:49:51;;;;;;;9.93;5.95;;;5.10;95.30;;;;;;10373617;28;20034;-66
2021/12/21 21:54:52;;;;;;;10.82;6.10;;;5.00;95.30;;;;;;10375848;28;20447;-69
2021/12/21 21:59:53;;;;;;;11.23;6.25;;;5.00;95.30;;;;;;10375232;28;20028;-70
2021/12/21 22:04:54;;;;;;;11.10;6.18;;;5.10;95.30;;;;;;10382192;28;20029;-70
2021/12/21 22:09:54;;;;;;;12.30;6.60;;;5.20;95.30;;;;;;10376013;28;20070;-69
2021/12/21 22:14:55;;;;;;;12.95;6.50;;;5.00;95.20;;;;;;10377916;28;20038;-69
2021/12/21 22:19:56;;;;;;;10.88;6.40;;;5.50;95.30;;;;;;10370005;28;20072;-70
2021/12/21 22:24:56;;;;;;;12.43;6.32;;;4.90;95.20;;;;;;10370301;28;20380;-69
2021/12/21 22:29:57;;;;;;;12.20;6.15;;;4.90;95.20;;;;;;10376230;28;20072;-67
2021/12/21 22:34:58;;;;;;;12.65;6.63;;;4.90;95.20;;;;;;10375248;28;20037;-64
2021/12/21 22:39:59;;;;;;;11.88;6.63;;;4.90;95.20;;;;;;10382112;28;20024;-67
2021/12/21 22:45:00;;;;;;;10.63;6.35;;;4.90;95.20;;;;;;10387963;28;20442;-69
2021/12/21 22:50:02;;;;;;;11.02;6.13;;;4.90;95.20;;;;;;10381989;28;20018;-66
2021/12/21 22:55:03;;;;;;;10.80;6.38;;;4.90;95.10;;;;;;10401690;28;20053;-61
2021/12/21 23:00:07;;;;;;;9.98;6.55;;;4.80;95.10;;;;;;10401519;28;20029;-67
2021/12/21 23:05:08;;;;;;;10.65;5.82;;;4.80;95.10;;;;;;10397750;28;20025;-65
2021/12/21 23:10:10;;;;;;;11.45;6.28;;;4.80;95.10;;;;;;10402207;28;20036;-69
2021/12/21 23:15:10;;;;;;;10.05;6.22;;;4.80;95.00;;;;;;10398057;28;20030;-68
2021/12/21 23:20:11;;;;;;;10.05;6.18;;;4.80;95.00;;;;;;10400773;28;20419;-67
2021/12/21 23:25:12;;;;;;;11.57;5.93;;;4.80;95.00;;;;;;10401321;28;20033;-62
2021/12/21 23:30:13;;;;;;;10.30;5.63;;;4.80;95.00;;;;;;10400812;28;20029;-64
2021/12/21 23:35:14;;;;;;;11.50;6.05;;;4.70;95.00;;;;;;10400315;28;20539;-66
2021/12/21 23:40:20;;;;;;;10.73;6.03;;;4.70;95.00;;;;;;10399884;28;20041;-69
2021/12/21 23:45:21;;;;;;;10.15;5.85;;;4.70;94.90;;;;;;10390027;28;20038;-63
2021/12/21 23:50:22;;;;;;;9.73;5.95;;;4.70;94.90;;;;;;10400031;28;20033;-63
2021/12/21 23:55:23;;;;;;;10.70;5.70;;;4.70;94.90;;;;;;10398265;28;20516;-66
